Adena, OH

11:20 AM EDT on September 03, 2015 (GMT -0400)
Crawford Heights | | Change Station
CLOSE
Current Station
Personal Weather Station
Location: Martins Ferry, OH
Elevation: 1109 ft
Nearby Weather Stations

Elev 1109 ft 40.09 °N, 80.75 °W | Updated 1 minute ago

Partly Cloudy
Partly Cloudy
83.1 °F
Feels Like 90 °F
N
4.7
Wind Variable Wind from SW

Today
High -- | Low -- °F
--% Chance of Precip.
Yesterday
High -- | Low -- °F
Precip. -- in
6:52 AM 7:52 PM
Waning Gibbous, 69% visible
Pressure 30.00 in
Visibility 8.0 miles
Clouds Clear
Heat Index 90 °F
Dew Point 74 °F
Humidity 74%
Rainfall 0.02 in
Snow Depth Not available.
UV 6 out of 12
Pollen 10.10 out of 12
Air Quality Not available.
Flu Activity Not available.
METAR KHLG 031453Z 00000KT 8SM CLR 25/20 A3002 RMK AO2 SLP159 T02500200 58001
Pressure 30.00 in
Visibility 8.0 miles
Clouds Clear
Heat Index 90 °F
Dew Point 74 °F
Humidity 74%
Rainfall 0.02 in
Snow Depth Not available.
UV 6 out of 12
Pollen 10.10 out of 12
Air Quality Not available.
Flu Activity Not available.
METAR KHLG 031453Z 00000KT 8SM CLR 25/20 A3002 RMK AO2 SLP159 T02500200 58001

10-Day Weather Forecast

×

Almanac

Astronomy

Sep. 03, 2015 Rise Set
Actual Time
Civil Twilight
Nautical Twilight
Astronomical Twilight
Moon
Length of Visible Light
Length of Day
Tomorrow will be .
, % of the Moon is Illuminated

Today's Extremes

State Highs State Lows

Community

WunderPhotos

Upload Photos

1,851,972 photos uploaded!

WunderBlogs® & News

Nearby

Air Quality

  Air Quality AQ Index Pollutant
Not available.

Snow Depth

Station Depth Elevation

Earthquake Activity

City Distance Mag. Time & Date
Minimum magnitude displayed is 2.5.

Coastal Water Temperatures

Place Temperature

Stations

Nearby Weather Stations

Station Location Temp. Windchill Dew Point Humidity Wind Precip. Elev Updated Type